sensor_id;sensor_type;location;lat;lon;timestamp;temperature;humidity
1958;DHT22;979;51.076;13.748;2023-07-20T00:01:08;19.50;83.50
1958;DHT22;979;51.076;13.748;2023-07-20T00:03:57;19.30;83.50
1958;DHT22;979;51.076;13.748;2023-07-20T00:06:37;19.40;83.80
1958;DHT22;979;51.076;13.748;2023-07-20T00:09:23;19.30;84.10
1958;DHT22;979;51.076;13.748;2023-07-20T00:12:10;19.30;84.10
1958;DHT22;979;51.076;13.748;2023-07-20T00:14:54;19.40;84.10
1958;DHT22;979;51.076;13.748;2023-07-20T00:17:39;19.30;84.40
1958;DHT22;979;51.076;13.748;2023-07-20T00:20:28;19.10;84.00
1958;DHT22;979;51.076;13.748;2023-07-20T00:23:29;19.30;85.20
1958;DHT22;979;51.076;13.748;2023-07-20T00:26:11;19.30;84.80
1958;DHT22;979;51.076;13.748;2023-07-20T00:28:57;19.10;85.20
1958;DHT22;979;51.076;13.748;2023-07-20T00:31:56;19.30;85.50
1958;DHT22;979;51.076;13.748;2023-07-20T00:34:42;19.20;85.10
1958;DHT22;979;51.076;13.748;2023-07-20T00:37:32;19.30;85.10
1958;DHT22;979;51.076;13.748;2023-07-20T00:40:12;19.20;85.00
1958;DHT22;979;51.076;13.748;2023-07-20T00:43:05;19.30;85.00
1958;DHT22;979;51.076;13.748;2023-07-20T00:46:08;19.30;85.10
1958;DHT22;979;51.076;13.748;2023-07-20T00:48:48;19.30;85.50
1958;DHT22;979;51.076;13.748;2023-07-20T00:51:33;19.20;85.70
1958;DHT22;979;51.076;13.748;2023-07-20T00:54:29;19.10;85.50
1958;DHT22;979;51.076;13.748;2023-07-20T00:57:28;19.20;85.90
1958;DHT22;979;51.076;13.748;2023-07-20T01:00:44;19.30;86.00
1958;DHT22;979;51.076;13.748;2023-07-20T01:09:52;19.40;85.80
1958;DHT22;979;51.076;13.748;2023-07-20T01:12:47;19.50;86.10
1958;DHT22;979;51.076;13.748;2023-07-20T01:15:34;19.50;86.10
1958;DHT22;979;51.076;13.748;2023-07-20T01:18:17;19.30;85.70
1958;DHT22;979;51.076;13.748;2023-07-20T01:20:59;19.50;85.80
1958;DHT22;979;51.076;13.748;2023-07-20T01:31:19;19.30;85.30
1958;DHT22;979;51.076;13.748;2023-07-20T01:34:12;19.50;85.20
1958;DHT22;979;51.076;13.748;2023-07-20T01:37:16;19.50;85.30
1958;DHT22;979;51.076;13.748;2023-07-20T01:40:22;19.70;85.50
1958;DHT22;979;51.076;13.748;2023-07-20T01:43:02;19.40;85.30
1958;DHT22;979;51.076;13.748;2023-07-20T01:46:03;19.60;85.20
1958;DHT22;979;51.076;13.748;2023-07-20T01:52:19;19.20;85.00
1958;DHT22;979;51.076;13.748;2023-07-20T01:55:20;19.10;84.80
1958;DHT22;979;51.076;13.748;2023-07-20T01:58:25;19.20;84.80
1958;DHT22;979;51.076;13.748;2023-07-20T02:01:32;19.00;85.00
1958;DHT22;979;51.076;13.748;2023-07-20T02:04:31;19.00;85.20
1958;DHT22;979;51.076;13.748;2023-07-20T02:07:19;18.90;84.90
1958;DHT22;979;51.076;13.748;2023-07-20T02:13:31;18.90;85.00
1958;DHT22;979;51.076;13.748;2023-07-20T02:17:05;18.90;85.60
1958;DHT22;979;51.076;13.748;2023-07-20T02:19:50;18.90;85.30
1958;DHT22;979;51.076;13.748;2023-07-20T02:22:36;18.90;85.40
1958;DHT22;979;51.076;13.748;2023-07-20T02:25:43;18.90;85.40
1958;DHT22;979;51.076;13.748;2023-07-20T02:28:53;19.00;85.10
1958;DHT22;979;51.076;13.748;2023-07-20T02:31:49;18.80;85.00
1958;DHT22;979;51.076;13.748;2023-07-20T02:34:38;19.00;85.70
1958;DHT22;979;51.076;13.748;2023-07-20T02:37:21;19.00;85.50
1958;DHT22;979;51.076;13.748;2023-07-20T02:40:17;19.10;85.00
1958;DHT22;979;51.076;13.748;2023-07-20T02:43:10;19.00;85.30
1958;DHT22;979;51.076;13.748;2023-07-20T02:46:25;19.00;85.30
1958;DHT22;979;51.076;13.748;2023-07-20T02:49:23;19.00;85.50
1958;DHT22;979;51.076;13.748;2023-07-20T02:52:27;19.20;85.10
1958;DHT22;979;51.076;13.748;2023-07-20T02:55:15;19.00;85.30
1958;DHT22;979;51.076;13.748;2023-07-20T02:58:16;19.10;84.90
1958;DHT22;979;51.076;13.748;2023-07-20T03:01:16;19.00;85.00
1958;DHT22;979;51.076;13.748;2023-07-20T03:04:21;19.00;85.10
1958;DHT22;979;51.076;13.748;2023-07-20T03:07:12;18.80;84.50
1958;DHT22;979;51.076;13.748;2023-07-20T03:10:38;19.00;84.80
1958;DHT22;979;51.076;13.748;2023-07-20T03:13:58;19.00;84.90
1958;DHT22;979;51.076;13.748;2023-07-20T03:17:21;19.00;84.80
1958;DHT22;979;51.076;13.748;2023-07-20T03:20:57;18.90;85.10
1958;DHT22;979;51.076;13.748;2023-07-20T03:24:08;18.90;84.90
1958;DHT22;979;51.076;13.748;2023-07-20T03:27:10;18.90;84.90
1958;DHT22;979;51.076;13.748;2023-07-20T03:30:23;18.90;84.70
1958;DHT22;979;51.076;13.748;2023-07-20T03:33:28;18.90;84.90
1958;DHT22;979;51.076;13.748;2023-07-20T03:36:17;18.90;85.50
1958;DHT22;979;51.076;13.748;2023-07-20T03:39:04;18.90;85.30
1958;DHT22;979;51.076;13.748;2023-07-20T03:41:59;19.00;85.30
1958;DHT22;979;51.076;13.748;2023-07-20T03:45:10;19.00;85.60
1958;DHT22;979;51.076;13.748;2023-07-20T03:48:12;19.00;86.00
1958;DHT22;979;51.076;13.748;2023-07-20T03:50:58;19.00;85.40
1958;DHT22;979;51.076;13.748;2023-07-20T03:53:35;18.90;85.20
1958;DHT22;979;51.076;13.748;2023-07-20T03:56:34;19.00;85.30
1958;DHT22;979;51.076;13.748;2023-07-20T03:59:26;19.10;85.50
1958;DHT22;979;51.076;13.748;2023-07-20T04:02:25;19.10;85.10
1958;DHT22;979;51.076;13.748;2023-07-20T04:05:31;19.20;85.50
1958;DHT22;979;51.076;13.748;2023-07-20T04:08:07;19.30;85.80
1958;DHT22;979;51.076;13.748;2023-07-20T04:11:28;19.10;85.00
1958;DHT22;979;51.076;13.748;2023-07-20T04:14:27;19.10;85.50
1958;DHT22;979;51.076;13.748;2023-07-20T04:20:15;19.00;85.10
1958;DHT22;979;51.076;13.748;2023-07-20T04:26:38;19.30;85.50
1958;DHT22;979;51.076;13.748;2023-07-20T04:29:32;19.40;85.30
1958;DHT22;979;51.076;13.748;2023-07-20T04:36:47;19.60;84.70
1958;DHT22;979;51.076;13.748;2023-07-20T04:39:40;19.70;84.60
1958;DHT22;979;51.076;13.748;2023-07-20T04:42:29;19.70;84.60
1958;DHT22;979;51.076;13.748;2023-07-20T04:45:26;19.60;84.80
1958;DHT22;979;51.076;13.748;2023-07-20T04:48:10;19.60;83.90
1958;DHT22;979;51.076;13.748;2023-07-20T04:51:07;19.80;84.10
1958;DHT22;979;51.076;13.748;2023-07-20T04:54:11;19.80;84.60
1958;DHT22;979;51.076;13.748;2023-07-20T04:57:29;19.80;84.10
1958;DHT22;979;51.076;13.748;2023-07-20T05:00:17;19.90;84.50
1958;DHT22;979;51.076;13.748;2023-07-20T05:03:11;19.80;83.60
1958;DHT22;979;51.076;13.748;2023-07-20T05:06:12;19.70;83.70
1958;DHT22;979;51.076;13.748;2023-07-20T05:08:57;19.50;83.30
1958;DHT22;979;51.076;13.748;2023-07-20T05:11:37;19.60;84.20
1958;DHT22;979;51.076;13.748;2023-07-20T05:14:06;19.60;84.00
1958;DHT22;979;51.076;13.748;2023-07-20T05:16:37;19.50;83.90
1958;DHT22;979;51.076;13.748;2023-07-20T05:19:06;19.60;84.10
1958;DHT22;979;51.076;13.748;2023-07-20T05:21:37;19.60;84.20
1958;DHT22;979;51.076;13.748;2023-07-20T05:24:12;19.60;84.20
1958;DHT22;979;51.076;13.748;2023-07-20T05:26:53;19.60;85.00
1958;DHT22;979;51.076;13.748;2023-07-20T05:29:41;19.70;84.60
1958;DHT22;979;51.076;13.748;2023-07-20T05:32:37;19.70;84.70
1958;DHT22;979;51.076;13.748;2023-07-20T05:38:44;20.20;84.40
1958;DHT22;979;51.076;13.748;2023-07-20T05:41:38;20.10;83.80
1958;DHT22;979;51.076;13.748;2023-07-20T05:44:39;20.40;84.40
1958;DHT22;979;51.076;13.748;2023-07-20T05:47:30;20.50;83.90
1958;DHT22;979;51.076;13.748;2023-07-20T05:50:22;20.80;83.60
1958;DHT22;979;51.076;13.748;2023-07-20T05:53:44;20.70;83.20
1958;DHT22;979;51.076;13.748;2023-07-20T05:57:08;20.70;82.70
1958;DHT22;979;51.076;13.748;2023-07-20T05:59:47;20.60;82.40
1958;DHT22;979;51.076;13.748;2023-07-20T06:02:30;20.50;82.30
1958;DHT22;979;51.076;13.748;2023-07-20T06:05:26;20.50;82.40
1958;DHT22;979;51.076;13.748;2023-07-20T06:08:27;20.60;82.10
1958;DHT22;979;51.076;13.748;2023-07-20T06:11:09;20.50;82.50
1958;DHT22;979;51.076;13.748;2023-07-20T06:13:53;20.50;82.30
1958;DHT22;979;51.076;13.748;2023-07-20T06:16:57;20.50;82.40
1958;DHT22;979;51.076;13.748;2023-07-20T06:20:31;20.60;82.60
1958;DHT22;979;51.076;13.748;2023-07-20T06:23:51;20.60;82.20
1958;DHT22;979;51.076;13.748;2023-07-20T06:26:42;20.70;81.90
1958;DHT22;979;51.076;13.748;2023-07-20T06:29:23;20.70;80.70
1958;DHT22;979;51.076;13.748;2023-07-20T06:32:22;20.60;80.40
1958;DHT22;979;51.076;13.748;2023-07-20T06:35:21;20.70;80.60
1958;DHT22;979;51.076;13.748;2023-07-20T06:38:24;20.60;80.50
1958;DHT22;979;51.076;13.748;2023-07-20T06:41:05;20.60;79.90
1958;DHT22;979;51.076;13.748;2023-07-20T06:43:53;20.50;80.50
1958;DHT22;979;51.076;13.748;2023-07-20T06:46:56;20.30;80.90
1958;DHT22;979;51.076;13.748;2023-07-20T06:50:10;20.10;81.50
1958;DHT22;979;51.076;13.748;2023-07-20T06:53:01;19.90;81.90
1958;DHT22;979;51.076;13.748;2023-07-20T06:56:02;19.90;82.10
1958;DHT22;979;51.076;13.748;2023-07-20T06:58:58;19.80;82.80
1958;DHT22;979;51.076;13.748;2023-07-20T07:02:01;19.80;83.00
1958;DHT22;979;51.076;13.748;2023-07-20T07:05:07;19.70;83.40
1958;DHT22;979;51.076;13.748;2023-07-20T07:08:11;19.60;83.20
1958;DHT22;979;51.076;13.748;2023-07-20T07:10:56;19.60;83.70
1958;DHT22;979;51.076;13.748;2023-07-20T07:13:37;19.70;83.90
1958;DHT22;979;51.076;13.748;2023-07-20T07:16:20;19.90;84.60
1958;DHT22;979;51.076;13.748;2023-07-20T07:19:23;19.80;83.90
1958;DHT22;979;51.076;13.748;2023-07-20T07:22:19;20.30;84.20
1958;DHT22;979;51.076;13.748;2023-07-20T07:25:24;20.50;84.00
1958;DHT22;979;51.076;13.748;2023-07-20T07:27:54;20.70;84.60
1958;DHT22;979;51.076;13.748;2023-07-20T07:30:22;20.90;83.80
1958;DHT22;979;51.076;13.748;2023-07-20T07:32:51;21.00;83.30
1958;DHT22;979;51.076;13.748;2023-07-20T07:35:20;21.10;82.80
1958;DHT22;979;51.076;13.748;2023-07-20T07:37:48;21.20;82.50
1958;DHT22;979;51.076;13.748;2023-07-20T07:40:37;21.30;82.20
1958;DHT22;979;51.076;13.748;2023-07-20T07:43:08;21.50;81.50
1958;DHT22;979;51.076;13.748;2023-07-20T07:45:37;21.60;80.20
1958;DHT22;979;51.076;13.748;2023-07-20T07:48:06;21.60;79.20
1958;DHT22;979;51.076;13.748;2023-07-20T07:50:35;21.50;78.40
1958;DHT22;979;51.076;13.748;2023-07-20T07:53:07;21.50;78.40
1958;DHT22;979;51.076;13.748;2023-07-20T07:55:38;21.50;78.60
1958;DHT22;979;51.076;13.748;2023-07-20T07:58:06;21.50;78.40
1958;DHT22;979;51.076;13.748;2023-07-20T08:00:35;21.60;78.80
1958;DHT22;979;51.076;13.748;2023-07-20T08:03:03;21.50;78.40
1958;DHT22;979;51.076;13.748;2023-07-20T08:05:33;21.90;78.60
1958;DHT22;979;51.076;13.748;2023-07-20T08:08:02;21.90;78.20
1958;DHT22;979;51.076;13.748;2023-07-20T08:10:30;21.90;78.00
1958;DHT22;979;51.076;13.748;2023-07-20T08:13:00;22.00;77.90
1958;DHT22;979;51.076;13.748;2023-07-20T08:15:29;22.00;77.70
1958;DHT22;979;51.076;13.748;2023-07-20T08:17:57;22.10;77.90
1958;DHT22;979;51.076;13.748;2023-07-20T08:20:28;22.30;77.50
1958;DHT22;979;51.076;13.748;2023-07-20T08:22:56;22.30;77.00
1958;DHT22;979;51.076;13.748;2023-07-20T08:25:26;22.20;76.80
1958;DHT22;979;51.076;13.748;2023-07-20T08:27:55;22.20;76.50
1958;DHT22;979;51.076;13.748;2023-07-20T08:30:40;22.00;76.30
1958;DHT22;979;51.076;13.748;2023-07-20T08:33:09;21.90;76.40
1958;DHT22;979;51.076;13.748;2023-07-20T08:35:37;21.80;76.50
1958;DHT22;979;51.076;13.748;2023-07-20T08:38:07;21.80;76.50
1958;DHT22;979;51.076;13.748;2023-07-20T08:40:40;21.70;76.40
1958;DHT22;979;51.076;13.748;2023-07-20T08:43:10;21.80;76.20
1958;DHT22;979;51.076;13.748;2023-07-20T08:45:41;21.90;76.20
1958;DHT22;979;51.076;13.748;2023-07-20T08:48:09;22.00;76.30
1958;DHT22;979;51.076;13.748;2023-07-20T08:50:40;22.20;76.30
1958;DHT22;979;51.076;13.748;2023-07-20T08:53:10;22.30;75.80
1958;DHT22;979;51.076;13.748;2023-07-20T08:55:39;22.40;75.50
1958;DHT22;979;51.076;13.748;2023-07-20T08:58:08;22.50;74.80
1958;DHT22;979;51.076;13.748;2023-07-20T09:00:41;22.50;74.30
1958;DHT22;979;51.076;13.748;2023-07-20T09:03:14;22.70;74.60
1958;DHT22;979;51.076;13.748;2023-07-20T09:05:44;22.80;74.50
1958;DHT22;979;51.076;13.748;2023-07-20T09:08:13;23.00;73.80
1958;DHT22;979;51.076;13.748;2023-07-20T09:10:41;23.10;73.60
1958;DHT22;979;51.076;13.748;2023-07-20T09:13:09;23.30;73.50
1958;DHT22;979;51.076;13.748;2023-07-20T09:15:48;23.50;72.80
1958;DHT22;979;51.076;13.748;2023-07-20T09:18:24;23.60;72.10
1958;DHT22;979;51.076;13.748;2023-07-20T09:20:57;23.50;71.60
1958;DHT22;979;51.076;13.748;2023-07-20T09:23:31;23.50;71.10
1958;DHT22;979;51.076;13.748;2023-07-20T09:26:00;23.50;71.20
1958;DHT22;979;51.076;13.748;2023-07-20T09:28:28;23.80;71.60
1958;DHT22;979;51.076;13.748;2023-07-20T09:30:58;23.90;70.90
1958;DHT22;979;51.076;13.748;2023-07-20T09:33:47;24.00;70.30
1958;DHT22;979;51.076;13.748;2023-07-20T09:36:18;24.00;69.70
1958;DHT22;979;51.076;13.748;2023-07-20T09:39:08;23.90;69.20
1958;DHT22;979;51.076;13.748;2023-07-20T09:41:42;23.80;68.70
1958;DHT22;979;51.076;13.748;2023-07-20T09:44:14;23.80;68.60
1958;DHT22;979;51.076;13.748;2023-07-20T09:46:48;23.80;68.80
1958;DHT22;979;51.076;13.748;2023-07-20T09:49:20;23.60;68.70
1958;DHT22;979;51.076;13.748;2023-07-20T09:51:52;23.30;69.60
1958;DHT22;979;51.076;13.748;2023-07-20T09:54:24;23.10;70.10
1958;DHT22;979;51.076;13.748;2023-07-20T09:56:57;22.90;70.60
1958;DHT22;979;51.076;13.748;2023-07-20T09:59:26;22.70;70.80
1958;DHT22;979;51.076;13.748;2023-07-20T10:01:58;22.50;71.30
1958;DHT22;979;51.076;13.748;2023-07-20T10:04:29;22.30;71.60
1958;DHT22;979;51.076;13.748;2023-07-20T10:06:59;22.10;72.40
1958;DHT22;979;51.076;13.748;2023-07-20T10:09:29;21.80;73.50
1958;DHT22;979;51.076;13.748;2023-07-20T10:11:59;21.50;74.60
1958;DHT22;979;51.076;13.748;2023-07-20T10:14:49;21.10;75.10
1958;DHT22;979;51.076;13.748;2023-07-20T10:17:23;20.70;76.10
1958;DHT22;979;51.076;13.748;2023-07-20T10:19:56;20.40;77.10
1958;DHT22;979;51.076;13.748;2023-07-20T10:22:27;20.30;78.00
1958;DHT22;979;51.076;13.748;2023-07-20T10:25:08;20.40;78.70
1958;DHT22;979;51.076;13.748;2023-07-20T10:27:37;20.50;79.00
1958;DHT22;979;51.076;13.748;2023-07-20T10:30:07;20.60;78.60
1958;DHT22;979;51.076;13.748;2023-07-20T10:32:38;20.60;78.30
1958;DHT22;979;51.076;13.748;2023-07-20T10:35:18;20.60;78.30
1958;DHT22;979;51.076;13.748;2023-07-20T10:37:51;20.60;78.40
1958;DHT22;979;51.076;13.748;2023-07-20T10:41:46;20.70;78.70
1958;DHT22;979;51.076;13.748;2023-07-20T10:43:58;20.80;79.50
1958;DHT22;979;51.076;13.748;2023-07-20T10:46:59;21.10;80.50
1958;DHT22;979;51.076;13.748;2023-07-20T10:49:33;21.40;80.20
1958;DHT22;979;51.076;13.748;2023-07-20T10:52:05;21.70;80.40
1958;DHT22;979;51.076;13.748;2023-07-20T10:54:35;21.90;80.10
1958;DHT22;979;51.076;13.748;2023-07-20T10:57:21;22.10;79.40
1958;DHT22;979;51.076;13.748;2023-07-20T10:59:50;22.20;78.70
1958;DHT22;979;51.076;13.748;2023-07-20T11:02:19;22.30;78.40
1958;DHT22;979;51.076;13.748;2023-07-20T11:04:49;22.40;78.40
1958;DHT22;979;51.076;13.748;2023-07-20T11:07:35;22.50;78.00
1958;DHT22;979;51.076;13.748;2023-07-20T11:10:13;22.40;77.00
1958;DHT22;979;51.076;13.748;2023-07-20T11:16:02;22.10;76.10
1958;DHT22;979;51.076;13.748;2023-07-20T11:18:34;22.10;76.10
1958;DHT22;979;51.076;13.748;2023-07-20T11:21:09;22.20;76.60
1958;DHT22;979;51.076;13.748;2023-07-20T11:23:39;22.40;76.80
1958;DHT22;979;51.076;13.748;2023-07-20T11:26:13;22.50;76.70
1958;DHT22;979;51.076;13.748;2023-07-20T11:28:43;22.60;76.40
1958;DHT22;979;51.076;13.748;2023-07-20T11:31:14;22.80;76.30
1958;DHT22;979;51.076;13.748;2023-07-20T11:34:04;23.10;76.60
1958;DHT22;979;51.076;13.748;2023-07-20T11:36:36;23.60;76.90
1958;DHT22;979;51.076;13.748;2023-07-20T11:39:10;24.00;76.10
1958;DHT22;979;51.076;13.748;2023-07-20T11:41:39;24.60;75.40
1958;DHT22;979;51.076;13.748;2023-07-20T11:44:12;25.40;74.40
1958;DHT22;979;51.076;13.748;2023-07-20T11:46:42;26.40;72.60
1958;DHT22;979;51.076;13.748;2023-07-20T11:49:12;27.10;70.90
1958;DHT22;979;51.076;13.748;2023-07-20T11:51:42;27.70;68.60
1958;DHT22;979;51.076;13.748;2023-07-20T11:54:13;28.00;67.30
1958;DHT22;979;51.076;13.748;2023-07-20T11:56:42;28.00;65.70
1958;DHT22;979;51.076;13.748;2023-07-20T11:59:11;27.70;65.00
1958;DHT22;979;51.076;13.748;2023-07-20T12:01:40;27.30;64.80
1958;DHT22;979;51.076;13.748;2023-07-20T12:04:09;27.00;64.70
1958;DHT22;979;51.076;13.748;2023-07-20T12:06:38;26.60;65.10
1958;DHT22;979;51.076;13.748;2023-07-20T12:09:14;26.30;65.50
1958;DHT22;979;51.076;13.748;2023-07-20T12:11:49;26.00;65.70
1958;DHT22;979;51.076;13.748;2023-07-20T12:14:17;25.60;66.00
1958;DHT22;979;51.076;13.748;2023-07-20T12:16:52;25.20;66.60
1958;DHT22;979;51.076;13.748;2023-07-20T12:19:24;25.00;67.10
1958;DHT22;979;51.076;13.748;2023-07-20T12:21:57;24.60;67.70
1958;DHT22;979;51.076;13.748;2023-07-20T12:24:27;24.30;68.80
1958;DHT22;979;51.076;13.748;2023-07-20T12:26:56;23.90;69.40
1958;DHT22;979;51.076;13.748;2023-07-20T12:29:24;23.70;70.20
1958;DHT22;979;51.076;13.748;2023-07-20T12:31:53;23.40;71.20
1958;DHT22;979;51.076;13.748;2023-07-20T12:34:41;23.10;71.40
1958;DHT22;979;51.076;13.748;2023-07-20T12:37:36;22.70;72.30
1958;DHT22;979;51.076;13.748;2023-07-20T12:40:06;22.20;73.30
1958;DHT22;979;51.076;13.748;2023-07-20T12:42:43;21.90;74.70
1958;DHT22;979;51.076;13.748;2023-07-20T12:45:12;21.70;75.40
1958;DHT22;979;51.076;13.748;2023-07-20T12:47:40;21.70;75.80
1958;DHT22;979;51.076;13.748;2023-07-20T12:50:10;21.60;76.00
1958;DHT22;979;51.076;13.748;2023-07-20T12:52:42;21.50;75.90
1958;DHT22;979;51.076;13.748;2023-07-20T12:55:10;21.40;75.80
1958;DHT22;979;51.076;13.748;2023-07-20T12:57:40;21.40;76.10
1958;DHT22;979;51.076;13.748;2023-07-20T13:00:10;21.30;76.10
1958;DHT22;979;51.076;13.748;2023-07-20T13:02:39;21.30;76.00
1958;DHT22;979;51.076;13.748;2023-07-20T13:05:13;21.30;76.10
1958;DHT22;979;51.076;13.748;2023-07-20T13:08:06;21.20;76.30
1958;DHT22;979;51.076;13.748;2023-07-20T13:10:41;21.30;76.90
1958;DHT22;979;51.076;13.748;2023-07-20T13:13:37;21.40;76.80
1958;DHT22;979;51.076;13.748;2023-07-20T13:16:05;21.50;77.00
1958;DHT22;979;51.076;13.748;2023-07-20T13:18:33;21.60;76.80
1958;DHT22;979;51.076;13.748;2023-07-20T13:21:02;21.70;76.80
1958;DHT22;979;51.076;13.748;2023-07-20T13:23:34;21.80;76.80
1958;DHT22;979;51.076;13.748;2023-07-20T13:26:05;21.90;76.50
1958;DHT22;979;51.076;13.748;2023-07-20T13:28:35;22.00;76.10
1958;DHT22;979;51.076;13.748;2023-07-20T13:31:04;22.00;75.90
1958;DHT22;979;51.076;13.748;2023-07-20T13:33:32;21.90;75.50
1958;DHT22;979;51.076;13.748;2023-07-20T13:36:05;22.00;75.40
1958;DHT22;979;51.076;13.748;2023-07-20T13:38:37;22.00;75.10
1958;DHT22;979;51.076;13.748;2023-07-20T13:41:05;22.10;75.30
1958;DHT22;979;51.076;13.748;2023-07-20T13:43:36;22.20;74.80
1958;DHT22;979;51.076;13.748;2023-07-20T13:46:07;22.30;74.60
1958;DHT22;979;51.076;13.748;2023-07-20T13:48:41;22.40;74.20
1958;DHT22;979;51.076;13.748;2023-07-20T13:51:09;22.50;73.60
1958;DHT22;979;51.076;13.748;2023-07-20T13:53:39;22.50;73.20
1958;DHT22;979;51.076;13.748;2023-07-20T13:56:10;22.50;72.70
1958;DHT22;979;51.076;13.748;2023-07-20T13:58:44;22.60;72.80
1958;DHT22;979;51.076;13.748;2023-07-20T14:01:13;22.70;72.80
1958;DHT22;979;51.076;13.748;2023-07-20T14:03:56;22.80;72.50
1958;DHT22;979;51.076;13.748;2023-07-20T14:06:25;22.90;72.00
1958;DHT22;979;51.076;13.748;2023-07-20T14:08:58;23.00;72.00
1958;DHT22;979;51.076;13.748;2023-07-20T14:11:27;23.10;71.80
1958;DHT22;979;51.076;13.748;2023-07-20T14:14:01;23.20;71.60
1958;DHT22;979;51.076;13.748;2023-07-20T14:16:29;23.20;71.10
1958;DHT22;979;51.076;13.748;2023-07-20T14:18:59;23.10;70.90
1958;DHT22;979;51.076;13.748;2023-07-20T14:21:28;23.20;71.20
1958;DHT22;979;51.076;13.748;2023-07-20T14:23:59;23.10;71.30
1958;DHT22;979;51.076;13.748;2023-07-20T14:26:29;23.40;71.20
1958;DHT22;979;51.076;13.748;2023-07-20T14:28:59;23.50;70.80
1958;DHT22;979;51.076;13.748;2023-07-20T14:31:28;23.60;70.60
1958;DHT22;979;51.076;13.748;2023-07-20T14:33:59;23.80;70.20
1958;DHT22;979;51.076;13.748;2023-07-20T14:36:27;23.80;70.00
1958;DHT22;979;51.076;13.748;2023-07-20T14:39:01;23.90;70.10
1958;DHT22;979;51.076;13.748;2023-07-20T14:41:30;24.00;70.10
1958;DHT22;979;51.076;13.748;2023-07-20T14:43:58;24.20;69.90
1958;DHT22;979;51.076;13.748;2023-07-20T14:46:27;24.30;69.70
1958;DHT22;979;51.076;13.748;2023-07-20T14:48:56;24.40;69.90
1958;DHT22;979;51.076;13.748;2023-07-20T14:51:24;24.60;69.80
1958;DHT22;979;51.076;13.748;2023-07-20T14:54:07;25.30;70.70
1958;DHT22;979;51.076;13.748;2023-07-20T14:56:38;26.20;69.10
1958;DHT22;979;51.076;13.748;2023-07-20T14:59:07;27.00;68.10
1958;DHT22;979;51.076;13.748;2023-07-20T15:01:36;27.90;67.30
1958;DHT22;979;51.076;13.748;2023-07-20T15:04:04;28.80;65.30
1958;DHT22;979;51.076;13.748;2023-07-20T15:06:33;29.50;63.80
1958;DHT22;979;51.076;13.748;2023-07-20T15:09:01;30.20;62.10
1958;DHT22;979;51.076;13.748;2023-07-20T15:11:33;30.70;60.90
1958;DHT22;979;51.076;13.748;2023-07-20T15:14:02;31.10;59.20
1958;DHT22;979;51.076;13.748;2023-07-20T15:16:30;31.00;58.40
1958;DHT22;979;51.076;13.748;2023-07-20T15:18:58;31.20;58.80
1958;DHT22;979;51.076;13.748;2023-07-20T15:21:27;31.90;58.80
1958;DHT22;979;51.076;13.748;2023-07-20T15:23:57;32.20;57.20
1958;DHT22;979;51.076;13.748;2023-07-20T15:26:28;32.10;56.50
1958;DHT22;979;51.076;13.748;2023-07-20T15:28:59;32.50;56.20
1958;DHT22;979;51.076;13.748;2023-07-20T15:31:28;33.00;56.20
1958;DHT22;979;51.076;13.748;2023-07-20T15:33:59;33.10;55.30
1958;DHT22;979;51.076;13.748;2023-07-20T15:36:28;33.00;54.60
1958;DHT22;979;51.076;13.748;2023-07-20T15:39:00;32.60;54.40
1958;DHT22;979;51.076;13.748;2023-07-20T15:41:29;32.20;54.00
1958;DHT22;979;51.076;13.748;2023-07-20T15:43:59;31.70;54.30
1958;DHT22;979;51.076;13.748;2023-07-20T15:46:50;31.20;54.40
1958;DHT22;979;51.076;13.748;2023-07-20T15:49:19;31.00;54.50
1958;DHT22;979;51.076;13.748;2023-07-20T15:51:48;30.60;54.70
1958;DHT22;979;51.076;13.748;2023-07-20T15:54:17;30.10;54.80
1958;DHT22;979;51.076;13.748;2023-07-20T15:56:46;29.90;55.40
1958;DHT22;979;51.076;13.748;2023-07-20T15:59:19;29.70;55.80
1958;DHT22;979;51.076;13.748;2023-07-20T16:01:50;30.40;55.80
1958;DHT22;979;51.076;13.748;2023-07-20T16:04:18;30.90;55.50
1958;DHT22;979;51.076;13.748;2023-07-20T16:06:47;31.50;54.70
1958;DHT22;979;51.076;13.748;2023-07-20T16:09:15;31.70;54.20
1958;DHT22;979;51.076;13.748;2023-07-20T16:11:44;31.70;54.00
1958;DHT22;979;51.076;13.748;2023-07-20T16:14:15;32.00;54.00
1958;DHT22;979;51.076;13.748;2023-07-20T16:16:47;32.10;53.50
1958;DHT22;979;51.076;13.748;2023-07-20T16:19:16;32.20;53.40
1958;DHT22;979;51.076;13.748;2023-07-20T16:22:13;32.40;53.40
1958;DHT22;979;51.076;13.748;2023-07-20T16:24:43;32.70;52.40
1958;DHT22;979;51.076;13.748;2023-07-20T16:27:12;32.80;52.20
1958;DHT22;979;51.076;13.748;2023-07-20T16:29:40;32.90;51.70
1958;DHT22;979;51.076;13.748;2023-07-20T16:32:11;32.90;51.30
1958;DHT22;979;51.076;13.748;2023-07-20T16:34:40;32.80;51.30
1958;DHT22;979;51.076;13.748;2023-07-20T16:37:11;32.90;51.40
1958;DHT22;979;51.076;13.748;2023-07-20T16:39:43;32.70;50.70
1958;DHT22;979;51.076;13.748;2023-07-20T16:42:14;32.30;51.20
1958;DHT22;979;51.076;13.748;2023-07-20T16:44:42;31.80;51.10
1958;DHT22;979;51.076;13.748;2023-07-20T16:47:14;30.90;51.00
1958;DHT22;979;51.076;13.748;2023-07-20T16:49:42;30.30;51.70
1958;DHT22;979;51.076;13.748;2023-07-20T16:52:12;29.60;52.30
1958;DHT22;979;51.076;13.748;2023-07-20T16:54:41;29.00;52.60
1958;DHT22;979;51.076;13.748;2023-07-20T16:57:09;28.40;53.20
1958;DHT22;979;51.076;13.748;2023-07-20T16:59:42;28.90;53.80
1958;DHT22;979;51.076;13.748;2023-07-20T17:02:27;29.10;54.10
1958;DHT22;979;51.076;13.748;2023-07-20T17:04:56;29.40;54.00
1958;DHT22;979;51.076;13.748;2023-07-20T17:07:26;29.60;54.20
1958;DHT22;979;51.076;13.748;2023-07-20T17:09:55;29.90;54.20
1958;DHT22;979;51.076;13.748;2023-07-20T17:12:33;30.10;54.10
1958;DHT22;979;51.076;13.748;2023-07-20T17:15:09;30.40;53.80
1958;DHT22;979;51.076;13.748;2023-07-20T17:17:39;30.60;53.10
1958;DHT22;979;51.076;13.748;2023-07-20T17:20:09;30.70;52.80
1958;DHT22;979;51.076;13.748;2023-07-20T17:22:43;30.80;53.00
1958;DHT22;979;51.076;13.748;2023-07-20T17:25:12;30.60;51.80
1958;DHT22;979;51.076;13.748;2023-07-20T17:27:43;30.50;51.50
1958;DHT22;979;51.076;13.748;2023-07-20T17:30:15;30.20;51.30
1958;DHT22;979;51.076;13.748;2023-07-20T17:32:45;29.80;51.30
1958;DHT22;979;51.076;13.748;2023-07-20T17:35:17;29.30;51.60
1958;DHT22;979;51.076;13.748;2023-07-20T17:38:10;28.80;51.80
1958;DHT22;979;51.076;13.748;2023-07-20T17:40:41;28.30;51.80
1958;DHT22;979;51.076;13.748;2023-07-20T17:43:10;28.10;52.60
1958;DHT22;979;51.076;13.748;2023-07-20T17:45:39;28.00;52.80
1958;DHT22;979;51.076;13.748;2023-07-20T17:48:09;27.90;53.30
1958;DHT22;979;51.076;13.748;2023-07-20T17:50:37;27.90;53.50
1958;DHT22;979;51.076;13.748;2023-07-20T17:53:09;28.00;53.30
1958;DHT22;979;51.076;13.748;2023-07-20T17:55:37;28.00;53.20
1958;DHT22;979;51.076;13.748;2023-07-20T17:58:06;28.00;53.00
1958;DHT22;979;51.076;13.748;2023-07-20T18:00:35;27.80;52.90
1958;DHT22;979;51.076;13.748;2023-07-20T18:03:04;27.50;52.90
1958;DHT22;979;51.076;13.748;2023-07-20T18:05:35;27.00;53.20